Time;durP1;ratioP1;P1;durP2;ratioP2;P2;SDS_P1;SDS_P2;PMS_P1;PMS_P2;Temp;Humidity;BMP_temperature;BMP_pressure;BME280_temperature;BME280_humidity;BME280_pressure;Samples;Min_cycle;Max_cycle;Signal;HPM_P1;HPM_P2
2023/08/25 00:02:10;;;;;;;18.20;14.70;;;20.60;99.90;;;;;;5032156;28;20107;-71
2023/08/25 00:04:35;;;;;;;19.27;14.30;;;20.60;99.90;;;;;;5014775;28;20037;-71
2023/08/25 00:07:01;;;;;;;18.60;14.90;;;20.10;99.90;;;;;;5014477;28;20147;-71
2023/08/25 00:09:27;;;;;;;24.08;15.82;;;20.40;99.90;;;;;;5014308;28;20042;-72
2023/08/25 00:11:52;;;;;;;17.58;14.10;;;20.60;99.90;;;;;;5014712;28;20065;-72
2023/08/25 00:14:18;;;;;;;15.98;13.82;;;20.30;99.90;;;;;;5014478;28;20037;-71
2023/08/25 00:16:43;;;;;;;15.52;13.93;;;20.00;99.90;;;;;;5032205;28;20045;-71
2023/08/25 00:19:09;;;;;;;17.85;13.68;;;20.20;99.90;;;;;;5014458;28;20049;-71
2023/08/25 00:21:35;;;;;;;16.80;13.55;;;19.90;99.90;;;;;;5032082;28;20052;-71
2023/08/25 00:24:00;;;;;;;19.35;15.30;;;19.90;99.90;;;;;;5032108;28;20107;-71
2023/08/25 00:26:26;;;;;;;17.92;12.85;;;19.80;99.90;;;;;;5032121;28;20037;-72
2023/08/25 00:28:52;;;;;;;17.42;14.85;;;20.20;99.90;;;;;;5014144;28;20037;-72
2023/08/25 00:31:18;;;;;;;18.88;14.95;;;20.40;99.90;;;;;;5014256;28;20080;-71
2023/08/25 00:33:49;;;;;;;19.60;14.52;;;20.30;99.90;;;;;;5032099;28;20091;-72
2023/08/25 00:36:14;;;;;;;19.00;16.60;;;19.90;99.90;;;;;;5032028;28;20060;-72
2023/08/25 00:38:40;;;;;;;23.35;17.40;;;20.50;99.90;;;;;;5031478;28;20049;-71
2023/08/25 00:41:05;;;;;;;21.55;16.50;;;20.40;99.90;;;;;;5031897;28;20048;-71
2023/08/25 00:43:33;;;;;;;20.40;16.58;;;20.50;99.90;;;;;;5032037;28;20037;-72
2023/08/25 00:45:59;;;;;;;18.83;15.98;;;20.10;99.90;;;;;;5031692;28;20046;-71
2023/08/25 00:48:26;;;;;;;22.23;16.13;;;19.90;99.90;;;;;;5013955;28;20048;-71
2023/08/25 00:50:53;;;;;;;19.75;16.73;;;20.30;99.90;;;;;;5031584;28;20528;-71
2023/08/25 00:53:19;;;;;;;21.70;17.58;;;20.20;99.90;;;;;;5031627;28;20049;-71
2023/08/25 00:55:45;;;;;;;23.23;18.02;;;20.50;99.90;;;;;;5031884;28;20042;-71
2023/08/25 00:58:13;;;;;;;21.80;17.27;;;20.40;99.90;;;;;;5013930;28;20128;-71
2023/08/25 01:00:40;;;;;;;24.50;18.10;;;20.50;99.90;;;;;;5013263;28;20049;-71
2023/08/25 01:03:06;;;;;;;22.98;19.15;;;20.00;99.90;;;;;;5014266;28;20483;-71
2023/08/25 01:05:31;;;;;;;23.00;19.45;;;19.70;99.90;;;;;;5031381;28;20113;-71
2023/08/25 01:07:57;;;;;;;21.50;18.55;;;20.50;99.90;;;;;;4997731;28;20449;-72
2023/08/25 01:10:32;;;;;;;23.02;19.80;;;20.00;99.90;;;;;;5031356;28;20041;-71
2023/08/25 01:13:23;;;;;;;24.95;18.83;;;19.70;99.90;;;;;;5014081;28;20059;-71
2023/08/25 01:15:54;;;;;;;24.67;19.77;;;19.80;99.90;;;;;;5013763;28;20038;-71
2023/08/25 01:18:29;;;;;;;25.55;20.80;;;20.30;99.90;;;;;;5013634;28;20564;-71
2023/08/25 01:20:55;;;;;;;26.63;21.45;;;20.20;99.90;;;;;;5013546;28;20045;-71
2023/08/25 01:23:48;;;;;;;27.95;21.88;;;20.50;99.90;;;;;;5013757;28;20092;-71
2023/08/25 01:26:15;;;;;;;28.20;21.63;;;20.40;99.90;;;;;;5031334;28;20091;-71
2023/08/25 01:28:41;;;;;;;28.77;23.73;;;20.60;99.90;;;;;;5013327;28;20073;-71
2023/08/25 01:31:06;;;;;;;28.30;22.92;;;20.60;99.90;;;;;;5013830;28;20044;-71
2023/08/25 01:33:33;;;;;;;31.33;22.10;;;20.40;99.90;;;;;;5031317;28;20041;-71
2023/08/25 01:36:10;;;;;;;25.83;22.00;;;19.90;99.90;;;;;;5031263;28;20041;-71
2023/08/25 01:38:58;;;;;;;27.20;23.45;;;19.80;99.90;;;;;;5031099;28;20046;-71
2023/08/25 01:41:32;;;;;;;28.77;23.55;;;20.50;99.90;;;;;;5013498;28;20069;-71
2023/08/25 01:44:02;;;;;;;27.73;23.08;;;19.80;99.90;;;;;;5013503;28;20045;-71
2023/08/25 01:46:30;;;;;;;28.25;23.60;;;20.30;99.90;;;;;;5030939;28;20081;-71
2023/08/25 01:48:58;;;;;;;32.00;25.15;;;20.20;99.90;;;;;;5031028;28;20037;-71
2023/08/25 01:51:24;;;;;;;27.52;22.40;;;19.70;99.90;;;;;;5030900;28;20444;-71
2023/08/25 01:53:54;;;;;;;29.65;23.45;;;20.00;99.90;;;;;;5031300;28;20045;-71
2023/08/25 01:56:19;;;;;;;28.63;24.13;;;20.40;99.90;;;;;;5031102;28;20552;-71
2023/08/25 01:58:45;;;;;;;33.70;25.65;;;20.30;99.90;;;;;;5030707;28;20128;-71
2023/08/25 02:01:10;;;;;;;35.95;25.83;;;19.60;99.90;;;;;;5013173;28;20045;-71
2023/08/25 02:03:36;;;;;;;28.90;23.88;;;19.70;99.90;;;;;;5026113;28;20113;-71
2023/08/25 02:06:02;;;;;;;30.80;25.40;;;19.60;99.90;;;;;;5029927;28;20041;-71
2023/08/25 02:08:27;;;;;;;33.08;23.98;;;20.00;99.90;;;;;;5030895;28;20566;-71
2023/08/25 02:10:53;;;;;;;30.08;24.33;;;19.60;99.90;;;;;;5030988;28;20040;-71
2023/08/25 02:13:19;;;;;;;34.47;26.83;;;19.60;99.90;;;;;;5031018;28;20401;-71
2023/08/25 02:15:47;;;;;;;30.25;24.85;;;20.10;99.90;;;;;;5013458;28;20049;-71
2023/08/25 02:18:13;;;;;;;31.13;25.35;;;19.90;99.90;;;;;;5034218;28;20516;-71
2023/08/25 02:20:39;;;;;;;33.40;26.05;;;20.20;99.90;;;;;;5034370;28;20037;-71
2023/08/25 02:23:05;;;;;;;28.23;24.83;;;19.80;99.90;;;;;;5017102;28;20041;-71
2023/08/25 02:25:31;;;;;;;31.15;25.42;;;19.50;99.90;;;;;;5034433;28;20076;-71
2023/08/25 02:27:57;;;;;;;32.05;25.05;;;19.70;99.90;;;;;;5034229;28;20076;-71
2023/08/25 02:30:23;;;;;;;30.80;25.60;;;20.30;99.90;;;;;;5033973;28;20037;-71
2023/08/25 02:32:49;;;;;;;31.33;25.08;;;20.20;99.90;;;;;;5034184;28;20088;-71
2023/08/25 02:35:15;;;;;;;35.50;26.50;;;20.20;99.90;;;;;;5034090;28;20424;-71
2023/08/25 02:38:00;;;;;;;29.60;24.33;;;20.30;99.90;;;;;;5034553;28;20052;-71
2023/08/25 02:40:26;;;;;;;29.40;24.25;;;19.50;99.90;;;;;;5034036;28;20042;-71
2023/08/25 02:42:58;;;;;;;29.58;24.35;;;20.30;99.90;;;;;;5016294;28;20042;-71
2023/08/25 02:45:24;;;;;;;30.83;24.67;;;20.20;99.90;;;;;;5034054;28;20048;-71
2023/08/25 02:47:50;;;;;;;32.13;25.58;;;20.00;99.90;;;;;;5033737;28;20042;-71
2023/08/25 02:50:16;;;;;;;33.40;24.02;;;19.80;99.90;;;;;;5041270;28;20123;-71
2023/08/25 02:52:41;;;;;;;33.70;25.27;;;19.40;99.90;;;;;;5036249;28;20061;-71
2023/08/25 02:55:07;;;;;;;29.10;25.13;;;19.40;99.90;;;;;;5053997;28;20037;-71
2023/08/25 02:57:33;;;;;;;31.15;24.85;;;20.00;99.90;;;;;;5053948;28;20071;-71
2023/08/25 02:59:58;;;;;;;32.65;25.45;;;19.60;99.90;;;;;;5050561;28;20481;-71
2023/08/25 03:02:24;;;;;;;28.77;23.95;;;19.40;99.90;;;;;;5045459;28;20041;-71
2023/08/25 03:04:49;;;;;;;27.77;22.63;;;19.70;99.90;;;;;;5051089;28;20059;-71
2023/08/25 03:07:15;;;;;;;30.20;24.30;;;19.40;99.90;;;;;;5035476;28;20045;-72
2023/08/25 03:09:41;;;;;;;30.25;24.40;;;20.00;99.90;;;;;;5053252;28;20067;-71
2023/08/25 03:12:06;;;;;;;36.33;25.52;;;19.60;99.90;;;;;;5053386;28;20041;-71
2023/08/25 03:14:32;;;;;;;32.22;24.33;;;19.60;99.90;;;;;;5035917;28;20048;-71
2023/08/25 03:16:58;;;;;;;29.17;24.02;;;19.40;99.90;;;;;;5053141;28;20098;-71
2023/08/25 03:19:23;;;;;;;29.70;24.10;;;19.80;99.90;;;;;;5053360;28;20103;-71
2023/08/25 03:21:49;;;;;;;33.78;25.52;;;19.90;99.90;;;;;;5053125;28;20459;-71
2023/08/25 03:24:15;;;;;;;30.50;24.80;;;19.90;99.90;;;;;;5053387;28;20041;-71
2023/08/25 03:26:40;;;;;;;33.30;25.02;;;20.00;99.90;;;;;;5053199;28;20057;-71
2023/08/25 03:29:06;;;;;;;32.65;24.95;;;19.80;99.90;;;;;;5051698;28;20120;-71
2023/08/25 03:31:32;;;;;;;34.65;26.40;;;20.10;99.90;;;;;;5053102;28;20071;-71
2023/08/25 03:33:58;;;;;;;29.42;24.58;;;20.00;99.90;;;;;;5053134;28;20033;-71
2023/08/25 03:36:23;;;;;;;36.50;29.05;;;19.60;99.90;;;;;;5053143;28;20123;-71
2023/08/25 03:38:50;;;;;;;39.85;29.42;;;19.70;99.90;;;;;;5052739;28;20503;-71
2023/08/25 03:41:15;;;;;;;41.67;32.30;;;20.10;99.90;;;;;;5052762;28;20036;-71
2023/08/25 03:43:41;;;;;;;43.47;30.90;;;20.10;99.90;;;;;;5052750;28;20108;-71
2023/08/25 03:46:07;;;;;;;41.17;30.92;;;19.40;99.90;;;;;;5052705;28;20036;-71
2023/08/25 03:48:32;;;;;;;40.13;30.17;;;20.00;99.90;;;;;;5052664;28;20043;-71
2023/08/25 03:50:58;;;;;;;41.70;30.52;;;19.70;99.90;;;;;;5034696;28;20068;-71
2023/08/25 03:53:23;;;;;;;42.35;31.52;;;20.10;99.90;;;;;;5052917;28;20037;-71
2023/08/25 03:55:49;;;;;;;42.10;32.00;;;19.60;99.90;;;;;;5052736;28;20036;-71
2023/08/25 03:58:14;;;;;;;42.47;31.25;;;19.80;99.90;;;;;;5052298;28;20415;-71
2023/08/25 04:00:40;;;;;;;43.90;32.28;;;19.30;99.90;;;;;;5051774;28;20091;-71
2023/08/25 04:03:06;;;;;;;47.03;32.55;;;19.80;99.90;;;;;;5052643;28;20048;-71
2023/08/25 04:05:35;;;;;;;49.47;34.83;;;19.30;99.90;;;;;;5052446;28;20413;-71
2023/08/25 04:08:00;;;;;;;50.53;34.63;;;19.80;99.90;;;;;;5052003;28;20139;-70
2023/08/25 04:10:26;;;;;;;50.50;36.90;;;20.00;99.90;;;;;;5052238;28;20129;-71
2023/08/25 04:12:51;;;;;;;48.53;34.80;;;19.50;99.90;;;;;;5052211;28;20496;-71
2023/08/25 04:15:20;;;;;;;50.75;35.67;;;19.50;99.90;;;;;;5052132;28;20041;-71
2023/08/25 04:17:46;;;;;;;51.10;36.72;;;19.80;99.90;;;;;;5052307;28;20073;-71
2023/08/25 04:20:12;;;;;;;51.88;34.42;;;19.90;99.90;;;;;;5034122;28;20103;-71
2023/08/25 04:22:37;;;;;;;48.33;35.35;;;19.40;99.90;;;;;;5052253;28;20044;-71
2023/08/25 04:25:04;;;;;;;50.30;34.35;;;20.10;99.90;;;;;;5034239;28;20519;-71
2023/08/25 04:27:30;;;;;;;49.28;36.13;;;19.30;99.90;;;;;;5034081;28;20073;-71
2023/08/25 04:29:55;;;;;;;54.85;34.65;;;20.00;99.90;;;;;;5051503;28;20107;-71
2023/08/25 04:32:22;;;;;;;52.70;35.95;;;19.50;99.90;;;;;;5051869;28;20036;-71
2023/08/25 04:34:48;;;;;;;46.13;33.50;;;19.30;99.90;;;;;;5051669;28;20492;-71
2023/08/25 04:37:13;;;;;;;50.78;34.40;;;19.50;99.90;;;;;;5051516;28;20048;-71
2023/08/25 04:39:40;;;;;;;45.47;33.72;;;19.80;99.90;;;;;;5051125;28;20047;-71
2023/08/25 04:42:06;;;;;;;51.88;37.45;;;20.10;99.90;;;;;;5034069;28;20216;-71
2023/08/25 04:44:31;;;;;;;53.13;36.83;;;20.00;99.90;;;;;;5051650;28;20124;-71
2023/08/25 04:46:57;;;;;;;49.25;35.80;;;19.30;99.90;;;;;;5051487;28;20099;-71
2023/08/25 04:49:22;;;;;;;51.50;35.55;;;19.30;99.90;;;;;;5051564;28;20033;-71
2023/08/25 04:51:48;;;;;;;54.33;38.38;;;19.50;99.90;;;;;;5051860;28;20143;-71
2023/08/25 04:54:14;;;;;;;58.17;37.50;;;20.10;99.90;;;;;;5051779;28;20493;-71
2023/08/25 04:56:39;;;;;;;52.55;37.78;;;19.90;99.90;;;;;;5033577;28;20045;-71
2023/08/25 04:59:05;;;;;;;54.83;38.88;;;19.30;99.90;;;;;;5033060;28;20120;-71
2023/08/25 05:01:31;;;;;;;56.03;37.05;;;19.40;99.90;;;;;;5051655;28;20065;-71
2023/08/25 05:03:56;;;;;;;54.63;37.47;;;19.30;99.90;;;;;;5051737;28;20067;-71
2023/08/25 05:06:22;;;;;;;51.47;36.17;;;20.00;99.90;;;;;;5051518;28;20049;-71
2023/08/25 05:08:47;;;;;;;48.88;35.53;;;19.90;99.90;;;;;;5040406;28;20041;-71
2023/08/25 05:11:13;;;;;;;51.97;36.47;;;19.60;99.90;;;;;;5030468;28;20064;-71
2023/08/25 05:13:39;;;;;;;50.80;36.47;;;19.50;99.90;;;;;;5029934;28;20040;-71
2023/08/25 05:16:05;;;;;;;51.47;34.17;;;19.50;99.90;;;;;;5031221;28;20059;-71
2023/08/25 05:18:31;;;;;;;55.58;35.53;;;19.90;99.90;;;;;;5013416;28;20057;-71
2023/08/25 05:21:00;;;;;;;55.40;37.70;;;20.10;99.90;;;;;;5030399;28;20033;-71
2023/08/25 05:23:26;;;;;;;55.70;36.50;;;19.80;99.90;;;;;;5031616;28;20046;-71
2023/08/25 05:25:52;;;;;;;56.65;38.58;;;20.10;99.90;;;;;;5030996;28;20099;-71
2023/08/25 05:28:17;;;;;;;58.25;38.47;;;19.50;99.90;;;;;;5031084;28;20435;-71
2023/08/25 05:30:48;;;;;;;61.33;38.50;;;20.20;99.90;;;;;;5031217;28;20452;-71
2023/08/25 05:33:14;;;;;;;57.40;37.00;;;20.20;99.90;;;;;;5031249;28;20547;-71
2023/08/25 05:35:40;;;;;;;58.55;38.15;;;19.60;99.90;;;;;;5031276;28;20528;-71
2023/08/25 05:38:06;;;;;;;57.53;37.40;;;20.10;99.90;;;;;;5031005;28;20038;-71
2023/08/25 05:40:31;;;;;;;64.00;40.22;;;20.00;99.90;;;;;;5031088;28;20044;-71
2023/08/25 05:42:57;;;;;;;60.05;39.40;;;20.00;99.90;;;;;;5031178;28;20037;-71
2023/08/25 05:45:22;;;;;;;59.55;39.60;;;20.20;99.90;;;;;;5031445;28;20037;-71
2023/08/25 05:47:49;;;;;;;60.85;38.15;;;19.30;99.90;;;;;;5031044;28;20044;-71
2023/08/25 05:50:15;;;;;;;61.30;38.95;;;19.70;99.90;;;;;;5031006;28;20045;-71
2023/08/25 05:52:41;;;;;;;58.92;37.97;;;20.00;99.90;;;;;;5034076;28;20462;-71
2023/08/25 05:55:08;;;;;;;60.50;38.65;;;20.20;99.90;;;;;;5034819;28;20547;-71
2023/08/25 05:57:34;;;;;;;60.70;38.55;;;19.30;99.90;;;;;;5034689;28;20068;-71
2023/08/25 05:59:59;;;;;;;61.38;39.95;;;20.10;99.90;;;;;;5016778;28;20497;-71
2023/08/25 06:02:25;;;;;;;61.65;39.65;;;20.20;99.90;;;;;;5034650;28;20148;-71
2023/08/25 06:04:50;;;;;;;58.78;38.70;;;19.80;99.90;;;;;;5034701;28;20080;-71
2023/08/25 06:07:16;;;;;;;64.35;38.97;;;20.20;99.90;;;;;;5034341;28;20037;-71
2023/08/25 06:09:42;;;;;;;65.18;40.45;;;19.40;99.90;;;;;;5016373;28;20041;-71
2023/08/25 06:12:08;;;;;;;65.63;40.88;;;19.80;99.90;;;;;;5034713;28;20504;-71
2023/08/25 06:14:35;;;;;;;61.08;40.03;;;19.50;99.90;;;;;;5034847;28;20083;-71
2023/08/25 06:17:01;;;;;;;60.53;39.50;;;20.30;99.90;;;;;;5034448;28;20097;-71
2023/08/25 06:19:27;;;;;;;58.60;38.30;;;20.20;99.90;;;;;;5034254;28;20072;-71
2023/08/25 06:21:52;;;;;;;59.47;38.78;;;19.90;99.90;;;;;;5034292;28;20041;-71
2023/08/25 06:24:18;;;;;;;60.78;40.08;;;19.50;99.90;;;;;;5033941;28;20107;-71
2023/08/25 06:26:44;;;;;;;60.45;41.67;;;20.40;99.90;;;;;;5034181;28;20124;-71
2023/08/25 06:29:11;;;;;;;69.68;42.30;;;19.70;99.90;;;;;;5034355;28;20041;-71
2023/08/25 06:31:37;;;;;;;62.38;40.70;;;20.00;99.90;;;;;;5034080;28;20128;-71
2023/08/25 06:34:02;;;;;;;63.63;40.08;;;19.60;99.90;;;;;;5016578;28;20034;-71
2023/08/25 06:36:32;;;;;;;66.35;40.95;;;20.00;99.90;;;;;;5034139;28;20050;-71
2023/08/25 06:38:58;;;;;;;60.58;36.97;;;20.60;99.90;;;;;;5015986;28;20648;-71
2023/08/25 06:41:24;;;;;;;60.72;38.53;;;20.40;99.90;;;;;;5034099;28;20069;-71
2023/08/25 06:43:50;;;;;;;64.10;39.20;;;19.80;99.90;;;;;;5034235;28;20489;-70
2023/08/25 06:46:16;;;;;;;69.38;41.33;;;20.70;99.90;;;;;;5033775;28;20145;-69
2023/08/25 06:48:41;;;;;;;58.92;38.65;;;20.10;99.90;;;;;;5033911;28;20526;-70
2023/08/25 06:51:07;;;;;;;60.10;37.58;;;20.00;99.90;;;;;;5033696;28;20041;-71
2023/08/25 06:53:32;;;;;;;59.83;37.97;;;20.30;99.90;;;;;;5033878;28;20052;-70
2023/08/25 06:55:58;;;;;;;57.67;38.15;;;21.20;99.90;;;;;;5034010;28;20065;-71
2023/08/25 06:58:23;;;;;;;57.50;37.35;;;21.20;99.90;;;;;;5016057;28;20497;-71
2023/08/25 07:00:50;;;;;;;60.92;39.03;;;21.00;99.90;;;;;;5016020;28;20033;-70
2023/08/25 07:03:16;;;;;;;60.67;39.45;;;21.10;99.90;;;;;;5016057;28;20099;-70
2023/08/25 07:05:42;;;;;;;59.53;36.88;;;20.70;99.90;;;;;;5033457;28;20034;-70
2023/08/25 07:08:08;;;;;;;56.33;38.05;;;20.60;99.90;;;;;;5033234;28;20092;-70
2023/08/25 07:10:34;;;;;;;61.28;38.25;;;21.10;99.90;;;;;;5016007;28;20064;-70
2023/08/25 07:13:00;;;;;;;63.85;40.15;;;20.50;99.90;;;;;;5015728;28;20033;-70
2023/08/25 07:15:25;;;;;;;59.13;38.65;;;20.60;99.90;;;;;;5015713;28;20049;-71
2023/08/25 07:17:51;;;;;;;67.25;39.97;;;20.50;99.90;;;;;;5033494;28;20041;-70
2023/08/25 07:20:17;;;;;;;63.38;39.15;;;20.50;99.90;;;;;;5033163;28;20604;-70
2023/08/25 07:22:42;;;;;;;66.07;38.75;;;20.40;99.90;;;;;;5033185;28;20060;-70
2023/08/25 07:25:08;;;;;;;68.00;38.47;;;20.50;99.90;;;;;;5033340;28;20068;-70
2023/08/25 07:27:34;;;;;;;63.45;38.47;;;20.30;99.90;;;;;;5015269;28;20378;-70
2023/08/25 07:30:00;;;;;;;61.88;39.60;;;20.80;99.90;;;;;;5033095;28;20408;-70
2023/08/25 07:32:26;;;;;;;66.57;41.60;;;20.40;99.90;;;;;;5033315;28;20037;-70
2023/08/25 07:34:51;;;;;;;61.75;38.10;;;20.80;99.90;;;;;;5033141;28;20041;-70
2023/08/25 07:37:17;;;;;;;66.65;40.15;;;20.90;99.90;;;;;;5032932;28;20079;-71
2023/08/25 07:39:50;;;;;;;62.33;38.65;;;21.40;99.90;;;;;;5015195;28;20053;-71
2023/08/25 07:42:15;;;;;;;70.28;40.40;;;21.50;99.90;;;;;;5015595;28;20045;-71
2023/08/25 07:44:41;;;;;;;61.42;36.30;;;21.60;99.90;;;;;;5033121;28;20141;-70
2023/08/25 07:47:07;;;;;;;62.95;38.28;;;21.60;99.90;;;;;;5032878;28;20492;-69
2023/08/25 07:49:33;;;;;;;72.30;40.25;;;21.50;99.90;;;;;;5032504;28;20080;-69
2023/08/25 07:51:59;;;;;;;67.70;38.08;;;21.30;99.90;;;;;;5032816;28;20061;-69
2023/08/25 07:54:26;;;;;;;62.13;38.28;;;21.50;99.90;;;;;;5015314;28;20378;-70
2023/08/25 07:56:52;;;;;;;67.63;38.75;;;20.90;99.90;;;;;;5032856;28;20045;-70
2023/08/25 07:59:18;;;;;;;64.68;40.08;;;21.40;99.90;;;;;;5032279;28;20048;-70
2023/08/25 08:01:43;;;;;;;64.68;39.72;;;21.60;99.90;;;;;;5032648;28;20034;-70
2023/08/25 08:04:09;;;;;;;67.10;39.50;;;21.30;99.90;;;;;;5032654;28;20040;-70
2023/08/25 08:06:35;;;;;;;64.07;39.38;;;21.50;99.90;;;;;;5032312;28;20038;-70
2023/08/25 08:09:01;;;;;;;65.90;37.55;;;21.10;99.90;;;;;;5032518;28;20120;-69
2023/08/25 08:11:26;;;;;;;61.67;36.80;;;20.90;99.90;;;;;;5032726;28;20072;-70
2023/08/25 08:13:52;;;;;;;62.88;34.60;;;21.10;99.90;;;;;;5031906;28;20033;-70
2023/08/25 08:16:18;;;;;;;62.38;37.92;;;21.10;99.90;;;;;;5032424;28;20037;-70
2023/08/25 08:18:43;;;;;;;65.25;38.25;;;21.70;99.90;;;;;;5032074;28;20386;-70
2023/08/25 08:21:09;;;;;;;66.15;37.53;;;21.00;99.90;;;;;;5031974;28;20048;-70
2023/08/25 08:23:34;;;;;;;56.22;34.42;;;21.00;99.90;;;;;;5032318;28;20071;-70
2023/08/25 08:26:00;;;;;;;63.35;36.67;;;21.40;99.90;;;;;;5031513;28;20087;-70
2023/08/25 08:28:25;;;;;;;66.32;37.00;;;22.00;99.90;;;;;;5031764;28;20041;-70
2023/08/25 08:30:51;;;;;;;61.72;38.08;;;21.70;99.90;;;;;;5032067;28;20055;-70
2023/08/25 08:33:17;;;;;;;54.13;34.20;;;22.20;99.90;;;;;;5032142;28;20037;-70
2023/08/25 08:35:43;;;;;;;55.03;34.63;;;22.30;99.90;;;;;;5031595;28;20073;-70
2023/08/25 08:38:09;;;;;;;57.78;36.10;;;22.50;99.90;;;;;;5031907;28;20111;-70
2023/08/25 08:40:35;;;;;;;57.05;36.28;;;23.00;99.90;;;;;;5031921;28;20073;-70
2023/08/25 08:43:04;;;;;;;59.30;36.03;;;22.50;99.90;;;;;;5029971;28;20675;-70
2023/08/25 08:45:34;;;;;;;56.40;35.28;;;22.40;99.90;;;;;;5031703;28;20045;-70
2023/08/25 08:48:03;;;;;;;57.60;37.30;;;22.20;99.90;;;;;;5031447;28;20051;-71
2023/08/25 08:50:30;;;;;;;52.75;35.72;;;22.30;99.90;;;;;;5013918;28;20037;-70
2023/08/25 08:52:57;;;;;;;55.35;33.45;;;22.30;99.90;;;;;;5031774;28;20505;-70
2023/08/25 08:55:23;;;;;;;49.47;33.22;;;22.40;99.90;;;;;;5014320;28;20405;-71
2023/08/25 08:57:49;;;;;;;49.97;34.35;;;22.40;99.90;;;;;;5031669;28;20091;-70
2023/08/25 09:00:18;;;;;;;50.00;34.33;;;22.40;99.90;;;;;;5013764;28;20675;-70
2023/08/25 09:02:48;;;;;;;54.60;33.17;;;22.30;99.90;;;;;;5013943;28;20045;-70
2023/08/25 09:05:15;;;;;;;54.53;33.90;;;21.80;99.90;;;;;;5031587;28;20543;-70
2023/08/25 09:07:42;;;;;;;51.15;34.10;;;22.10;99.90;;;;;;5031334;28;20054;-70
2023/08/25 09:10:10;;;;;;;61.05;32.35;;;22.40;99.90;;;;;;5013871;28;20037;-70
2023/08/25 09:12:35;;;;;;;51.47;34.67;;;21.90;99.90;;;;;;5013958;28;20044;-70
2023/08/25 09:15:01;;;;;;;48.65;33.78;;;22.10;99.90;;;;;;5031591;28;20050;-70
2023/08/25 09:17:27;;;;;;;53.97;34.33;;;22.20;99.90;;;;;;5031335;28;20038;-70
2023/08/25 09:20:04;;;;;;;52.60;33.00;;;21.80;99.90;;;;;;5031497;28;20075;-70
2023/08/25 09:22:30;;;;;;;52.03;32.38;;;22.10;99.90;;;;;;5014036;28;20127;-70
2023/08/25 09:24:58;;;;;;;52.92;31.63;;;21.60;99.90;;;;;;5031624;28;20060;-70
2023/08/25 09:27:26;;;;;;;49.20;32.97;;;21.60;99.90;;;;;;5035330;28;20042;-70
2023/08/25 09:30:03;;;;;;;53.30;33.42;;;21.90;99.90;;;;;;5017538;28;20037;-70
2023/08/25 09:32:29;;;;;;;49.33;31.73;;;21.80;99.90;;;;;;5017705;28;20045;-70
2023/08/25 09:34:55;;;;;;;47.40;31.25;;;21.50;99.90;;;;;;5035490;28;20039;-70
2023/08/25 09:37:21;;;;;;;52.13;33.35;;;21.20;99.90;;;;;;5034937;28;20076;-70
2023/08/25 09:39:47;;;;;;;49.30;33.45;;;21.20;99.90;;;;;;5016977;28;20042;-70
2023/08/25 09:42:13;;;;;;;54.65;35.33;;;21.10;99.90;;;;;;5035326;28;20052;-71
2023/08/25 09:44:38;;;;;;;57.47;34.90;;;21.70;99.90;;;;;;5034980;28;20132;-70
2023/08/25 09:47:06;;;;;;;55.70;35.00;;;20.90;99.90;;;;;;5034344;28;20046;-71
2023/08/25 09:49:39;;;;;;;54.90;36.20;;;21.00;99.90;;;;;;5019753;28;20640;-70
2023/08/25 09:52:12;;;;;;;58.72;37.03;;;20.80;99.90;;;;;;5074477;28;20403;-71
2023/08/25 09:54:38;;;;;;;58.58;36.78;;;20.80;99.90;;;;;;5056829;28;20040;-71
2023/08/25 09:57:03;;;;;;;55.42;36.83;;;20.70;99.90;;;;;;5074443;28;20048;-71
2023/08/25 09:59:30;;;;;;;55.58;34.85;;;21.20;99.90;;;;;;5056310;28;20400;-71
2023/08/25 10:01:58;;;;;;;57.17;36.42;;;21.40;99.90;;;;;;5056679;28;20049;-70
2023/08/25 10:04:24;;;;;;;58.67;36.72;;;20.60;99.90;;;;;;5056814;28;20036;-70
2023/08/25 10:06:51;;;;;;;57.40;36.13;;;20.80;99.90;;;;;;5056195;28;20557;-70
2023/08/25 10:09:18;;;;;;;54.05;37.83;;;21.30;99.90;;;;;;5048154;28;20082;-70
2023/08/25 10:11:45;;;;;;;55.70;36.95;;;21.00;99.90;;;;;;5032963;28;20056;-70
2023/08/25 10:14:12;;;;;;;53.03;34.80;;;20.90;99.90;;;;;;5053869;28;20041;-70
2023/08/25 10:16:51;;;;;;;51.80;35.83;;;20.50;99.90;;;;;;5036001;28;20052;-71
2023/08/25 10:19:25;;;;;;;58.25;37.97;;;20.80;99.90;;;;;;5035463;28;20044;-70
2023/08/25 10:21:52;;;;;;;53.65;36.58;;;21.10;99.90;;;;;;5035801;28;20606;-72
2023/08/25 10:24:20;;;;;;;53.42;35.55;;;21.20;99.90;;;;;;5053536;28;20041;-72
2023/08/25 10:26:47;;;;;;;54.72;36.83;;;20.80;99.90;;;;;;5035202;28;20045;-72
2023/08/25 10:29:15;;;;;;;56.67;37.03;;;21.20;99.90;;;;;;5052969;28;20045;-72
2023/08/25 10:31:57;;;;;;;57.58;37.58;;;21.00;99.90;;;;;;5053299;28;20040;-72
2023/08/25 10:34:43;;;;;;;54.80;36.95;;;21.10;99.90;;;;;;5035574;28;20037;-72
2023/08/25 10:37:32;;;;;;;61.60;37.13;;;20.40;99.90;;;;;;5053078;28;20079;-72
2023/08/25 10:40:02;;;;;;;54.10;38.35;;;21.10;99.90;;;;;;5052637;28;20057;-72
2023/08/25 10:42:31;;;;;;;55.50;37.30;;;20.60;99.90;;;;;;5035697;28;20049;-72
2023/08/25 10:45:07;;;;;;;62.78;39.55;;;21.20;99.90;;;;;;5035580;28;20048;-72
2023/08/25 10:47:38;;;;;;;60.90;38.95;;;21.10;99.90;;;;;;5035440;28;20044;-72
2023/08/25 10:50:04;;;;;;;53.40;36.33;;;21.40;99.90;;;;;;5047650;28;20087;-73
2023/08/25 10:52:31;;;;;;;52.55;36.97;;;20.50;99.90;;;;;;5015585;28;20112;-71
2023/08/25 10:54:57;;;;;;;54.55;36.00;;;20.50;99.90;;;;;;5015806;28;20044;-72
2023/08/25 10:57:31;;;;;;;57.05;38.20;;;20.90;99.90;;;;;;4995452;28;20037;-72
2023/08/25 11:00:17;;;;;;;53.50;37.53;;;21.40;99.90;;;;;;5030755;28;20041;-72
2023/08/25 11:02:42;;;;;;;59.20;36.78;;;20.90;99.90;;;;;;5033541;28;20521;-71
2023/08/25 11:05:28;;;;;;;57.85;38.00;;;20.60;99.90;;;;;;5033724;28;20081;-72
2023/08/25 11:07:55;;;;;;;54.13;35.22;;;20.90;99.90;;;;;;5015747;28;20060;-72
2023/08/25 11:10:27;;;;;;;50.38;36.30;;;21.20;99.90;;;;;;5015685;28;20033;-71
2023/08/25 11:12:53;;;;;;;61.45;37.28;;;21.10;99.90;;;;;;5016335;28;20042;-72
2023/08/25 11:15:21;;;;;;;50.00;36.75;;;20.80;99.90;;;;;;5033729;28;20049;-71
2023/08/25 11:17:48;;;;;;;52.80;36.40;;;20.60;99.90;;;;;;5033405;28;20645;-72
2023/08/25 11:20:16;;;;;;;48.20;34.53;;;21.40;99.90;;;;;;5033233;28;20132;-72
2023/08/25 11:22:56;;;;;;;52.35;37.30;;;21.30;99.90;;;;;;5033650;28;20055;-72
2023/08/25 11:25:22;;;;;;;54.83;35.55;;;20.60;99.90;;;;;;5033382;28;20513;-71
2023/08/25 11:27:49;;;;;;;53.72;35.63;;;21.20;99.90;;;;;;5033232;28;20049;-72
2023/08/25 11:30:15;;;;;;;50.60;34.75;;;21.30;99.90;;;;;;5033103;28;20563;-72
2023/08/25 11:32:40;;;;;;;52.15;33.38;;;21.30;99.90;;;;;;5015427;28;20033;-72
2023/08/25 11:35:08;;;;;;;49.00;34.85;;;20.90;99.90;;;;;;5033293;28;20045;-72
2023/08/25 11:37:34;;;;;;;49.92;34.33;;;21.40;99.90;;;;;;5033020;28;20563;-72
2023/08/25 11:40:00;;;;;;;48.00;34.17;;;21.40;99.90;;;;;;5032936;28;20038;-72
2023/08/25 11:42:26;;;;;;;50.33;33.35;;;20.80;99.90;;;;;;5033079;28;20033;-72
2023/08/25 11:44:52;;;;;;;52.88;34.10;;;20.90;99.90;;;;;;5033094;28;20109;-72
2023/08/25 11:47:20;;;;;;;48.53;33.90;;;20.50;99.90;;;;;;5032700;28;20033;-72
2023/08/25 11:49:48;;;;;;;54.92;34.58;;;21.30;99.90;;;;;;5031825;28;20041;-73
2023/08/25 11:52:15;;;;;;;58.85;35.35;;;21.40;99.90;;;;;;5015418;28;20041;-72
2023/08/25 11:54:48;;;;;;;52.60;34.50;;;21.30;99.90;;;;;;5032617;28;20505;-72
2023/08/25 11:57:14;;;;;;;52.10;33.65;;;21.20;99.90;;;;;;5014944;28;20060;-71
2023/08/25 11:59:46;;;;;;;43.85;32.33;;;20.30;99.90;;;;;;5014403;28;20559;-72
2023/08/25 12:02:20;;;;;;;47.38;33.45;;;20.30;99.90;;;;;;5032449;28;20043;-73
2023/08/25 12:04:57;;;;;;;48.83;33.17;;;20.60;99.90;;;;;;5032597;28;20125;-71
2023/08/25 12:07:28;;;;;;;49.40;34.35;;;20.80;99.90;;;;;;5032266;28;20064;-72
2023/08/25 12:09:55;;;;;;;62.72;37.65;;;21.10;99.90;;;;;;5014299;28;20045;-72
2023/08/25 12:12:21;;;;;;;53.58;35.65;;;20.80;99.90;;;;;;5031885;28;20095;-72
2023/08/25 12:14:50;;;;;;;51.55;36.50;;;20.10;99.90;;;;;;5032656;28;20037;-72
2023/08/25 12:17:27;;;;;;;54.50;36.13;;;20.20;99.90;;;;;;5014490;28;20417;-72
2023/08/25 12:19:53;;;;;;;51.95;35.38;;;20.00;99.90;;;;;;5031844;28;20037;-72
2023/08/25 12:22:19;;;;;;;53.90;35.33;;;20.50;99.90;;;;;;5032312;28;20125;-72
2023/08/25 12:24:45;;;;;;;52.63;37.53;;;20.70;99.90;;;;;;5032255;28;20076;-72
2023/08/25 12:27:11;;;;;;;59.20;36.15;;;20.00;99.90;;;;;;5032266;28;20065;-72
2023/08/25 12:29:36;;;;;;;51.50;36.55;;;20.60;99.90;;;;;;5031891;28;20041;-72